Fenwick, West Virginia
Current Conditions -  °F | °C
As of 12:15 PM on Thursday 27 Nov 2014 (Local Time) from KLWB Reporting Station
Overcast Overcast  
Wind Chill: -2°   Ceiling: 3300
Heat Index:   Visibility: 10mi
Dew Point: -2°   Wind: 7mph
Humidity: 74%   Direction: 290°WNW
Pressure: 30.06"   Gusts: NA
Location:  38.23°N, 80.58°W
Report Text: KLWB 271715Z AUTO 29006KT 10SM SCT021 OVC033 02/M02 A3006 RMK AO2 T00171024
Loading
Personal Weather Stations






























Interactive Weather Map New forecast layout! Learn more

10-Day Weather Forecast

Advertisements
Track Severe Weather on mobile